sensor_id;sensor_type;location;lat;lon;timestamp;pressure;altitude;pressure_sealevel;temperature;humidity
14343;BME280;7255;53.596;9.960;2024-01-30T00:02:16;102422.66;;;4.60;nan
14343;BME280;7255;53.596;9.960;2024-01-30T00:04:43;102412.59;;;4.54;nan
14343;BME280;7255;53.596;9.960;2024-01-30T00:07:11;102423.50;;;4.51;nan
14343;BME280;7255;53.596;9.960;2024-01-30T00:09:37;102415.38;;;4.53;nan
14343;BME280;7255;53.596;9.960;2024-01-30T00:12:05;102415.38;;;4.53;nan
14343;BME280;7255;53.596;9.960;2024-01-30T00:14:31;102415.09;;;4.46;nan
14343;BME280;7255;53.596;9.960;2024-01-30T00:16:58;102429.66;;;4.52;nan
14343;BME280;7255;53.596;9.960;2024-01-30T00:19:24;102406.72;;;4.51;nan
14343;BME280;7255;53.596;9.960;2024-01-30T00:21:50;102408.09;;;4.45;nan
14343;BME280;7255;53.596;9.960;2024-01-30T00:24:18;102401.09;;;4.44;nan
14343;BME280;7255;53.596;9.960;2024-01-30T00:26:45;102399.13;;;4.46;nan
14343;BME280;7255;53.596;9.960;2024-01-30T00:29:11;102385.13;;;4.44;nan
14343;BME280;7255;53.596;9.960;2024-01-30T00:31:44;102388.78;;;4.43;nan
14343;BME280;7255;53.596;9.960;2024-01-30T00:34:10;102392.44;;;4.42;nan
14343;BME280;7255;53.596;9.960;2024-01-30T00:36:37;102384.31;;;4.43;nan
14343;BME280;7255;53.596;9.960;2024-01-30T00:39:03;102399.13;;;4.46;nan
14343;BME280;7255;53.596;9.960;2024-01-30T00:41:32;102392.13;;;4.45;nan
14343;BME280;7255;53.596;9.960;2024-01-30T00:43:59;102391.84;;;4.48;nan
14343;BME280;7255;53.596;9.960;2024-01-30T00:46:25;102394.09;;;4.43;nan
14343;BME280;7255;53.596;9.960;2024-01-30T00:48:51;102398.59;;;4.42;nan
14343;BME280;7255;53.596;9.960;2024-01-30T00:51:18;102395.78;;;4.44;nan
14343;BME280;7255;53.596;9.960;2024-01-30T00:53:44;102381.78;;;4.42;nan
14343;BME280;7255;53.596;9.960;2024-01-30T00:56:11;102387.09;;;4.42;nan
14343;BME280;7255;53.596;9.960;2024-01-30T00:58:38;102388.78;;;4.43;nan
14343;BME280;7255;53.596;9.960;2024-01-30T01:01:05;102387.66;;;4.46;nan
14343;BME280;7255;53.596;9.960;2024-01-30T01:03:32;102388.50;;;4.46;nan
14343;BME280;7255;53.596;9.960;2024-01-30T01:05:58;102391.00;;;4.48;nan
14343;BME280;7255;53.596;9.960;2024-01-30T01:08:25;102388.22;;;4.49;nan
14343;BME280;7255;53.596;9.960;2024-01-30T01:10:52;102400.25;;;4.53;nan
14343;BME280;7255;53.596;9.960;2024-01-30T01:13:18;102385.09;;;4.63;nan
14343;BME280;7255;53.596;9.960;2024-01-30T01:15:46;102399.13;;;4.46;nan
14343;BME280;7255;53.596;9.960;2024-01-30T01:18:12;102399.72;;;4.40;nan
14343;BME280;7255;53.596;9.960;2024-01-30T01:20:39;102405.31;;;4.37;nan
14343;BME280;7255;53.596;9.960;2024-01-30T01:23:05;102400.00;;;4.37;nan
14343;BME280;7255;53.596;9.960;2024-01-30T01:25:31;102402.78;;;4.45;nan
14343;BME280;7255;53.596;9.960;2024-01-30T01:27:57;102403.06;;;4.42;nan
14343;BME280;7255;53.596;9.960;2024-01-30T01:30:26;102395.78;;;4.44;nan
14343;BME280;7255;53.596;9.960;2024-01-30T01:32:55;102396.63;;;4.44;nan
14343;BME280;7255;53.596;9.960;2024-01-30T01:35:23;102397.44;;;4.45;nan
14343;BME280;7255;53.596;9.960;2024-01-30T01:37:50;102395.78;;;4.44;nan
14343;BME280;7255;53.596;9.960;2024-01-30T01:40:20;102395.75;;;4.54;nan
14343;BME280;7255;53.596;9.960;2024-01-30T01:42:47;102399.09;;;4.66;nan
14343;BME280;7255;53.596;9.960;2024-01-30T01:45:13;102389.31;;;4.56;nan
14343;BME280;7255;53.596;9.960;2024-01-30T01:47:41;102380.62;;;4.54;nan
14343;BME280;7255;53.596;9.960;2024-01-30T01:50:10;102385.97;;;4.54;nan
14343;BME280;7255;53.596;9.960;2024-01-30T01:52:38;102386.53;;;4.58;nan
14343;BME280;7255;53.596;9.960;2024-01-30T01:55:06;102394.34;;;4.59;nan
14343;BME280;7255;53.596;9.960;2024-01-30T01:57:33;102395.75;;;4.63;nan
14343;BME280;7255;53.596;9.960;2024-01-30T02:00:00;102344.44;;;4.61;nan
14343;BME280;7255;53.596;9.960;2024-01-30T02:02:30;102378.34;;;4.69;nan
14343;BME280;7255;53.596;9.960;2024-01-30T02:04:57;102371.59;;;4.75;nan
14343;BME280;7255;53.596;9.960;2024-01-30T02:07:24;102370.44;;;4.77;nan
14343;BME280;7255;53.596;9.960;2024-01-30T02:09:51;102373.81;;;4.79;nan
14343;BME280;7255;53.596;9.960;2024-01-30T02:12:17;102374.66;;;4.80;nan
14343;BME280;7255;53.596;9.960;2024-01-30T02:14:46;102370.72;;;4.84;nan
14343;BME280;7255;53.596;9.960;2024-01-30T02:17:13;102361.44;;;4.88;nan
14343;BME280;7255;53.596;9.960;2024-01-30T02:19:40;102373.78;;;4.89;nan
14343;BME280;7255;53.596;9.960;2024-01-30T02:22:07;102354.69;;;4.94;nan
14343;BME280;7255;53.596;9.960;2024-01-30T02:24:34;102364.50;;;4.93;nan
14343;BME280;7255;53.596;9.960;2024-01-30T02:27:00;102361.69;;;4.95;nan
14343;BME280;7255;53.596;9.960;2024-01-30T02:29:26;102352.72;;;4.96;nan
14343;BME280;7255;53.596;9.960;2024-01-30T02:31:53;102356.91;;;4.98;nan
14343;BME280;7255;53.596;9.960;2024-01-30T02:34:19;102357.22;;;4.95;nan
14343;BME280;7255;53.596;9.960;2024-01-30T02:36:46;102349.34;;;4.94;nan
14343;BME280;7255;53.596;9.960;2024-01-30T02:39:14;102346.84;;;4.92;nan
14343;BME280;7255;53.596;9.960;2024-01-30T02:41:40;102355.84;;;4.91;nan
14343;BME280;7255;53.596;9.960;2024-01-30T02:44:06;102343.78;;;4.87;nan
14343;BME280;7255;53.596;9.960;2024-01-30T02:46:32;102336.78;;;4.86;nan
14343;BME280;7255;53.596;9.960;2024-01-30T02:48:59;102340.41;;;4.85;nan
14343;BME280;7255;53.596;9.960;2024-01-30T02:51:25;102333.72;;;4.81;nan
14343;BME280;7255;53.596;9.960;2024-01-30T02:53:52;102335.41;;;4.82;nan
14343;BME280;7255;53.596;9.960;2024-01-30T02:56:19;102326.47;;;4.73;nan
14343;BME280;7255;53.596;9.960;2024-01-30T02:58:46;102329.56;;;4.69;nan
14343;BME280;7255;53.596;9.960;2024-01-30T03:01:12;102331.53;;;4.67;nan
14343;BME280;7255;53.596;9.960;2024-01-30T03:03:38;102320.34;;;4.63;nan
14343;BME280;7255;53.596;9.960;2024-01-30T03:06:05;102336.31;;;4.63;nan
14343;BME280;7255;53.596;9.960;2024-01-30T03:08:32;102328.78;;;4.58;nan
14343;BME280;7255;53.596;9.960;2024-01-30T03:10:59;102329.06;;;4.55;nan
14343;BME280;7255;53.596;9.960;2024-01-30T03:13:27;102315.88;;;4.54;nan
14343;BME280;7255;53.596;9.960;2024-01-30T03:15:54;102327.97;;;4.48;nan
14343;BME280;7255;53.596;9.960;2024-01-30T03:18:21;102320.97;;;4.47;nan
14343;BME280;7255;53.596;9.960;2024-01-30T03:20:47;102320.97;;;4.47;nan
14343;BME280;7255;53.596;9.960;2024-01-30T03:23:13;102320.44;;;4.43;nan
14343;BME280;7255;53.596;9.960;2024-01-30T03:25:40;102314.56;;;4.40;nan
14343;BME280;7255;53.596;9.960;2024-01-30T03:28:06;102303.63;;;4.33;nan
14343;BME280;7255;53.596;9.960;2024-01-30T03:30:34;102306.16;;;4.35;nan
14343;BME280;7255;53.596;9.960;2024-01-30T03:33:00;102299.12;;;4.34;nan
14343;BME280;7255;53.596;9.960;2024-01-30T03:35:27;102276.75;;;4.27;nan
14343;BME280;7255;53.596;9.960;2024-01-30T03:37:53;102289.34;;;4.34;nan
14343;BME280;7255;53.596;9.960;2024-01-30T03:40:20;102290.22;;;4.25;nan
14343;BME280;7255;53.596;9.960;2024-01-30T03:42:46;102298.63;;;4.20;nan
14343;BME280;7255;53.596;9.960;2024-01-30T03:45:12;102290.78;;;4.19;nan
14343;BME280;7255;53.596;9.960;2024-01-30T03:47:43;102294.72;;;4.15;nan
14343;BME280;7255;53.596;9.960;2024-01-30T03:50:09;102280.47;;;4.06;nan
14343;BME280;7255;53.596;9.960;2024-01-30T03:52:36;102280.19;;;4.09;nan
14343;BME280;7255;53.596;9.960;2024-01-30T03:55:02;102285.50;;;4.09;nan
14343;BME280;7255;53.596;9.960;2024-01-30T03:57:29;102277.09;;;4.04;nan
14343;BME280;7255;53.596;9.960;2024-01-30T03:59:55;102284.37;;;4.02;nan
14343;BME280;7255;53.596;9.960;2024-01-30T04:02:21;102279.03;;;4.12;nan
14343;BME280;7255;53.596;9.960;2024-01-30T04:04:49;102280.16;;;4.19;nan
14343;BME280;7255;53.596;9.960;2024-01-30T04:07:15;102272.84;;;4.21;nan
14343;BME280;7255;53.596;9.960;2024-01-30T04:09:42;102282.38;;;4.14;nan
14343;BME280;7255;53.596;9.960;2024-01-30T04:12:08;102271.50;;;4.07;nan
14343;BME280;7255;53.596;9.960;2024-01-30T04:14:34;102279.62;;;4.05;nan
14343;BME280;7255;53.596;9.960;2024-01-30T04:17:01;102273.47;;;3.95;nan
14343;BME280;7255;53.596;9.960;2024-01-30T04:19:27;102283.56;;;3.92;nan
14343;BME280;7255;53.596;9.960;2024-01-30T04:21:55;102273.47;;;3.95;nan
14343;BME280;7255;53.596;9.960;2024-01-30T04:24:21;102269.28;;;3.93;nan
14343;BME280;7255;53.596;9.960;2024-01-30T04:26:47;102237.37;;;3.93;nan
14343;BME280;7255;53.596;9.960;2024-01-30T04:29:13;102273.22;;;3.89;nan
14343;BME280;7255;53.596;9.960;2024-01-30T04:31:40;102278.28;;;3.82;nan
14343;BME280;7255;53.596;9.960;2024-01-30T04:34:06;102266.25;;;3.78;nan
14343;BME280;7255;53.596;9.960;2024-01-30T04:36:32;102270.19;;;3.74;nan
14343;BME280;7255;53.596;9.960;2024-01-30T04:39:00;102274.63;;;3.73;nan
14343;BME280;7255;53.596;9.960;2024-01-30T04:41:26;102278.81;;;3.85;nan
14343;BME280;7255;53.596;9.960;2024-01-30T04:43:56;102277.72;;;3.78;nan
14343;BME280;7255;53.596;9.960;2024-01-30T04:46:23;102270.19;;;3.74;nan
14343;BME280;7255;53.596;9.960;2024-01-30T04:48:49;102280.81;;;3.74;nan
14343;BME280;7255;53.596;9.960;2024-01-30T04:51:15;102276.31;;;3.74;nan
14343;BME280;7255;53.596;9.960;2024-01-30T04:53:41;102289.75;;;3.73;nan
14343;BME280;7255;53.596;9.960;2024-01-30T04:56:09;102280.53;;;3.67;nan
14343;BME280;7255;53.596;9.960;2024-01-30T04:58:36;102280.53;;;3.67;nan
14343;BME280;7255;53.596;9.960;2024-01-30T05:01:02;102284.16;;;3.66;nan
14343;BME280;7255;53.596;9.960;2024-01-30T05:03:28;102275.22;;;3.67;nan
14343;BME280;7255;53.596;9.960;2024-01-30T05:05:55;102279.69;;;3.66;nan
14343;BME280;7255;53.596;9.960;2024-01-30T05:08:21;102276.88;;;3.68;nan
14343;BME280;7255;53.596;9.960;2024-01-30T05:10:48;102269.63;;;3.70;nan
14343;BME280;7255;53.596;9.960;2024-01-30T05:13:15;102270.44;;;3.80;nan
14343;BME280;7255;53.596;9.960;2024-01-30T05:15:42;102266.81;;;3.81;nan
14343;BME280;7255;53.596;9.960;2024-01-30T05:18:08;102271.53;;;3.88;nan
14343;BME280;7255;53.596;9.960;2024-01-30T05:20:34;102257.53;;;3.95;nan
14343;BME280;7255;53.596;9.960;2024-01-30T05:23:01;102283.56;;;4.01;nan
14343;BME280;7255;53.596;9.960;2024-01-30T05:25:27;102288.56;;;4.04;nan
14343;BME280;7255;53.596;9.960;2024-01-30T05:27:53;102281.84;;;4.10;nan
14343;BME280;7255;53.596;9.960;2024-01-30T05:30:21;102281.56;;;4.13;nan
14343;BME280;7255;53.596;9.960;2024-01-30T05:32:48;102281.84;;;4.20;nan
14343;BME280;7255;53.596;9.960;2024-01-30T05:35:14;102284.91;;;4.25;nan
14343;BME280;7255;53.596;9.960;2024-01-30T05:37:42;102282.62;;;4.30;nan
14343;BME280;7255;53.596;9.960;2024-01-30T05:40:09;102284.03;;;4.34;nan
14343;BME280;7255;53.596;9.960;2024-01-30T05:42:36;102272.53;;;4.34;nan
14343;BME280;7255;53.596;9.960;2024-01-30T05:45:02;102271.41;;;4.36;nan
14343;BME280;7255;53.596;9.960;2024-01-30T05:47:31;102267.47;;;4.40;nan
14343;BME280;7255;53.596;9.960;2024-01-30T05:49:58;102271.38;;;4.46;nan
14343;BME280;7255;53.596;9.960;2024-01-30T05:52:24;102269.44;;;4.38;nan
14343;BME280;7255;53.596;9.960;2024-01-30T05:54:50;102264.41;;;4.35;nan
14343;BME280;7255;53.596;9.960;2024-01-30T05:57:17;102267.75;;;4.37;nan
14343;BME280;7255;53.596;9.960;2024-01-30T05:59:44;102260.22;;;4.33;nan
14343;BME280;7255;53.596;9.960;2024-01-30T06:02:13;102257.09;;;4.37;nan
14343;BME280;7255;53.596;9.960;2024-01-30T06:04:40;102257.97;;;4.38;nan
14343;BME280;7255;53.596;9.960;2024-01-30T06:07:07;102260.19;;;4.42;nan
14343;BME280;7255;53.596;9.960;2024-01-30T06:09:33;102259.88;;;4.46;nan
14343;BME280;7255;53.596;9.960;2024-01-30T06:11:59;102258.47;;;4.51;nan
14343;BME280;7255;53.596;9.960;2024-01-30T06:14:26;102260.13;;;4.52;nan
14343;BME280;7255;53.596;9.960;2024-01-30T06:16:52;102257.31;;;4.54;nan
14343;BME280;7255;53.596;9.960;2024-01-30T06:19:18;102258.72;;;4.58;nan
14343;BME280;7255;53.596;9.960;2024-01-30T06:21:46;102267.63;;;4.67;nan
14343;BME280;7255;53.596;9.960;2024-01-30T06:24:12;102254.97;;;4.78;nan
14343;BME280;7255;53.596;9.960;2024-01-30T06:26:39;102256.87;;;4.86;nan
14343;BME280;7255;53.596;9.960;2024-01-30T06:29:05;102252.34;;;4.96;nan
14343;BME280;7255;53.596;9.960;2024-01-30T06:31:32;102252.84;;;5.00;nan
14343;BME280;7255;53.596;9.960;2024-01-30T06:33:59;102242.12;;;5.10;nan
14343;BME280;7255;53.596;9.960;2024-01-30T06:36:25;102251.34;;;5.15;nan
14343;BME280;7255;53.596;9.960;2024-01-30T06:38:52;102246.31;;;5.12;nan
14343;BME280;7255;53.596;9.960;2024-01-30T06:41:19;102244.56;;;5.21;nan
14343;BME280;7255;53.596;9.960;2024-01-30T06:43:45;102255.47;;;5.28;nan
14343;BME280;7255;53.596;9.960;2024-01-30T06:46:11;102241.91;;;5.39;nan
14343;BME280;7255;53.596;9.960;2024-01-30T06:48:39;102249.44;;;5.44;nan
14343;BME280;7255;53.596;9.960;2024-01-30T06:51:06;102255.81;;;5.51;nan
14343;BME280;7255;53.596;9.960;2024-01-30T06:53:32;102249.91;;;5.57;nan
14343;BME280;7255;53.596;9.960;2024-01-30T06:56:00;102263.44;;;5.46;nan
14343;BME280;7255;53.596;9.960;2024-01-30T06:58:26;102250.81;;;5.48;nan
14343;BME280;7255;53.596;9.960;2024-01-30T07:00:54;102251.13;;;5.45;nan
14343;BME280;7255;53.596;9.960;2024-01-30T07:03:20;102248.59;;;5.43;nan
14343;BME280;7255;53.596;9.960;2024-01-30T07:05:47;102243.03;;;5.36;nan
14343;BME280;7255;53.596;9.960;2024-01-30T07:08:13;102238.88;;;5.34;nan
14343;BME280;7255;53.596;9.960;2024-01-30T07:10:42;102238.62;;;5.27;nan
14343;BME280;7255;53.596;9.960;2024-01-30T07:13:10;102245.41;;;5.21;nan
14343;BME280;7255;53.596;9.960;2024-01-30T07:15:36;102239.53;;;5.18;nan
14343;BME280;7255;53.596;9.960;2024-01-30T07:18:03;102248.22;;;5.20;nan
14343;BME280;7255;53.596;9.960;2024-01-30T07:20:29;102249.12;;;5.11;nan
14343;BME280;7255;53.596;9.960;2024-01-30T07:22:57;102229.50;;;5.12;nan
14343;BME280;7255;53.596;9.960;2024-01-30T07:25:23;102244.94;;;5.08;nan
14343;BME280;7255;53.596;9.960;2024-01-30T07:27:52;102215.69;;;5.16;nan
14343;BME280;7255;53.596;9.960;2024-01-30T07:30:20;102230.88;;;5.16;nan
14343;BME280;7255;53.596;9.960;2024-01-30T07:32:46;102234.53;;;5.15;nan
14343;BME280;7255;53.596;9.960;2024-01-30T07:35:13;102230.56;;;5.19;nan
14343;BME280;7255;53.596;9.960;2024-01-30T07:37:39;102240.94;;;5.22;nan
14343;BME280;7255;53.596;9.960;2024-01-30T07:40:06;102222.97;;;5.24;nan
14343;BME280;7255;53.596;9.960;2024-01-30T07:42:33;102237.25;;;5.23;nan
14343;BME280;7255;53.596;9.960;2024-01-30T07:45:00;102245.88;;;5.35;nan
14343;BME280;7255;53.596;9.960;2024-01-30T07:47:27;102242.44;;;5.43;nan
14343;BME280;7255;53.596;9.960;2024-01-30T07:49:54;102245.94;;;5.61;nan
14343;BME280;7255;53.596;9.960;2024-01-30T07:52:20;102257.13;;;5.65;nan
14343;BME280;7255;53.596;9.960;2024-01-30T07:54:47;102252.84;;;5.72;nan
14343;BME280;7255;53.596;9.960;2024-01-30T07:57:13;102256.63;;;5.87;nan
14343;BME280;7255;53.596;9.960;2024-01-30T07:59:41;102248.75;;;5.86;nan
14343;BME280;7255;53.596;9.960;2024-01-30T08:02:08;102249.53;;;5.96;nan
14343;BME280;7255;53.596;9.960;2024-01-30T08:04:35;102254.75;;;6.06;nan
14343;BME280;7255;53.596;9.960;2024-01-30T08:07:02;102245.66;;;6.16;nan
14343;BME280;7255;53.596;9.960;2024-01-30T08:09:29;102242.00;;;6.18;nan
14343;BME280;7255;53.596;9.960;2024-01-30T08:11:55;102251.72;;;6.27;nan
14343;BME280;7255;53.596;9.960;2024-01-30T08:14:21;102250.87;;;6.26;nan
14343;BME280;7255;53.596;9.960;2024-01-30T08:16:48;102252.84;;;6.24;nan
14343;BME280;7255;53.596;9.960;2024-01-30T08:19:14;102257.25;;;6.33;nan
14343;BME280;7255;53.596;9.960;2024-01-30T08:21:43;102254.13;;;6.38;nan
14343;BME280;7255;53.596;9.960;2024-01-30T08:24:09;102255.47;;;6.42;nan
14343;BME280;7255;53.596;9.960;2024-01-30T08:26:36;102259.84;;;6.51;nan
14343;BME280;7255;53.596;9.960;2024-01-30T08:29:02;102257.22;;;6.60;nan
14343;BME280;7255;53.596;9.960;2024-01-30T08:31:29;102268.28;;;6.73;nan
14343;BME280;7255;53.596;9.960;2024-01-30T08:33:55;102250.75;;;6.79;nan
14343;BME280;7255;53.596;9.960;2024-01-30T08:36:21;102263.50;;;6.93;nan
14343;BME280;7255;53.596;9.960;2024-01-30T08:38:49;102256.66;;;6.99;nan
14343;BME280;7255;53.596;9.960;2024-01-30T08:41:15;102249.31;;;7.01;nan
14343;BME280;7255;53.596;9.960;2024-01-30T08:43:41;102242.31;;;7.00;nan
14343;BME280;7255;53.596;9.960;2024-01-30T08:46:07;102252.66;;;7.03;nan
14343;BME280;7255;53.596;9.960;2024-01-30T08:48:33;102245.81;;;7.08;nan
14343;BME280;7255;53.596;9.960;2024-01-30T08:51:00;102248.00;;;7.13;nan
14343;BME280;7255;53.596;9.960;2024-01-30T08:53:26;102238.16;;;7.13;nan
14343;BME280;7255;53.596;9.960;2024-01-30T08:55:54;102236.81;;;7.09;nan
14343;BME280;7255;53.596;9.960;2024-01-30T08:58:20;102232.59;;;7.07;nan
14343;BME280;7255;53.596;9.960;2024-01-30T09:00:46;102228.62;;;7.11;nan
14343;BME280;7255;53.596;9.960;2024-01-30T09:03:13;102215.94;;;7.13;nan
14343;BME280;7255;53.596;9.960;2024-01-30T09:05:41;102217.94;;;7.11;nan
14343;BME280;7255;53.596;9.960;2024-01-30T09:08:07;102207.06;;;7.21;nan
14343;BME280;7255;53.596;9.960;2024-01-30T09:10:34;102217.59;;;7.14;nan
14343;BME280;7255;53.596;9.960;2024-01-30T09:13:02;102213.59;;;7.18;nan
14343;BME280;7255;53.596;9.960;2024-01-30T09:15:28;102231.13;;;7.29;nan
14343;BME280;7255;53.596;9.960;2024-01-30T09:17:55;102228.28;;;7.30;nan
14343;BME280;7255;53.596;9.960;2024-01-30T09:20:21;102233.00;;;7.37;nan
14343;BME280;7255;53.596;9.960;2024-01-30T09:22:48;102228.66;;;7.44;nan
14343;BME280;7255;53.596;9.960;2024-01-30T09:25:14;102235.34;;;7.48;nan
14343;BME280;7255;53.596;9.960;2024-01-30T09:27:41;102243.34;;;7.56;nan
14343;BME280;7255;53.596;9.960;2024-01-30T09:30:09;102249.56;;;7.57;nan
14343;BME280;7255;53.596;9.960;2024-01-30T09:32:35;102262.09;;;7.64;nan
14343;BME280;7255;53.596;9.960;2024-01-30T09:35:02;102259.75;;;7.69;nan
14343;BME280;7255;53.596;9.960;2024-01-30T09:37:28;102263.59;;;7.75;nan
14343;BME280;7255;53.596;9.960;2024-01-30T09:39:54;102267.75;;;7.78;nan
14343;BME280;7255;53.596;9.960;2024-01-30T09:42:26;102260.75;;;7.77;nan
14343;BME280;7255;53.596;9.960;2024-01-30T09:44:54;102262.91;;;7.65;nan
14343;BME280;7255;53.596;9.960;2024-01-30T09:47:22;102261.25;;;7.64;nan
14343;BME280;7255;53.596;9.960;2024-01-30T09:49:48;102263.09;;;7.71;nan
14343;BME280;7255;53.596;9.960;2024-01-30T09:52:15;102261.06;;;7.74;nan
14343;BME280;7255;53.596;9.960;2024-01-30T09:54:42;102261.91;;;7.74;nan
14343;BME280;7255;53.596;9.960;2024-01-30T09:57:11;102256.34;;;7.84;nan
14343;BME280;7255;53.596;9.960;2024-01-30T09:59:37;102238.31;;;7.86;nan
14343;BME280;7255;53.596;9.960;2024-01-30T10:02:04;102253.00;;;7.98;nan
14343;BME280;7255;53.596;9.960;2024-01-30T10:04:31;102245.47;;;8.10;nan
14343;BME280;7255;53.596;9.960;2024-01-30T10:07:00;102231.06;;;8.11;nan
14343;BME280;7255;53.596;9.960;2024-01-30T10:09:27;102238.25;;;8.19;nan
14343;BME280;7255;53.596;9.960;2024-01-30T10:11:53;102230.66;;;8.31;nan
14343;BME280;7255;53.596;9.960;2024-01-30T10:14:20;102242.84;;;8.41;nan
14343;BME280;7255;53.596;9.960;2024-01-30T10:16:46;102238.00;;;8.45;nan
14343;BME280;7255;53.596;9.960;2024-01-30T10:19:13;102242.31;;;8.54;nan
14343;BME280;7255;53.596;9.960;2024-01-30T10:21:40;102241.50;;;8.54;nan
14343;BME280;7255;53.596;9.960;2024-01-30T10:24:07;102241.75;;;8.67;nan
14343;BME280;7255;53.596;9.960;2024-01-30T10:26:33;102256.87;;;8.60;nan
14343;BME280;7255;53.596;9.960;2024-01-30T10:28:59;102261.44;;;8.82;nan
14343;BME280;7255;53.596;9.960;2024-01-30T10:31:26;102251.34;;;8.93;nan
14343;BME280;7255;53.596;9.960;2024-01-30T10:33:52;102248.38;;;9.11;nan
14343;BME280;7255;53.596;9.960;2024-01-30T10:36:20;102258.75;;;9.14;nan
14343;BME280;7255;53.596;9.960;2024-01-30T10:38:53;102244.09;;;9.24;nan
14343;BME280;7255;53.596;9.960;2024-01-30T10:41:26;102245.16;;;9.38;nan
14343;BME280;7255;53.596;9.960;2024-01-30T10:43:58;102246.34;;;9.36;nan
14343;BME280;7255;53.596;9.960;2024-01-30T10:46:31;102247.44;;;9.50;nan
14343;BME280;7255;53.596;9.960;2024-01-30T10:48:59;102231.81;;;9.53;nan
14343;BME280;7255;53.596;9.960;2024-01-30T10:51:26;102247.16;;;9.59;nan
14343;BME280;7255;53.596;9.960;2024-01-30T10:53:55;102251.81;;;9.66;nan
14343;BME280;7255;53.596;9.960;2024-01-30T10:56:22;102245.25;;;9.68;nan
14343;BME280;7255;53.596;9.960;2024-01-30T10:58:50;102239.25;;;9.81;nan
14343;BME280;7255;53.596;9.960;2024-01-30T11:01:17;102249.38;;;9.94;nan
14343;BME280;7255;53.596;9.960;2024-01-30T11:03:44;102258.94;;;9.96;nan
14343;BME280;7255;53.596;9.960;2024-01-30T11:06:11;102240.37;;;10.01;nan
14343;BME280;7255;53.596;9.960;2024-01-30T11:08:39;102249.00;;;9.97;nan
14343;BME280;7255;53.596;9.960;2024-01-30T11:11:09;102245.41;;;10.05;nan
14343;BME280;7255;53.596;9.960;2024-01-30T11:13:36;102244.88;;;10.24;nan
14343;BME280;7255;53.596;9.960;2024-01-30T11:16:03;102241.53;;;10.22;nan
14343;BME280;7255;53.596;9.960;2024-01-30T11:18:31;102242.56;;;10.36;nan
14343;BME280;7255;53.596;9.960;2024-01-30T11:20:58;102241.91;;;10.49;nan
14343;BME280;7255;53.596;9.960;2024-01-30T11:23:27;102248.09;;;10.49;nan
14343;BME280;7255;53.596;9.960;2024-01-30T11:25:54;102238.72;;;10.60;nan
14343;BME280;7255;53.596;9.960;2024-01-30T11:28:22;102251.16;;;10.61;nan
14343;BME280;7255;53.596;9.960;2024-01-30T11:30:48;102242.59;;;10.72;nan
14343;BME280;7255;53.596;9.960;2024-01-30T11:33:27;102251.00;;;10.84;nan
14343;BME280;7255;53.596;9.960;2024-01-30T11:35:57;102251.00;;;10.84;nan
14343;BME280;7255;53.596;9.960;2024-01-30T11:38:25;102241.47;;;10.82;nan
14343;BME280;7255;53.596;9.960;2024-01-30T11:40:52;102246.47;;;10.85;nan
14343;BME280;7255;53.596;9.960;2024-01-30T11:43:19;102243.59;;;10.86;nan
14343;BME280;7255;53.596;9.960;2024-01-30T11:45:47;102233.69;;;10.87;nan
14343;BME280;7255;53.596;9.960;2024-01-30T11:48:13;102239.06;;;10.87;nan
14343;BME280;7255;53.596;9.960;2024-01-30T11:50:40;102227.94;;;10.90;nan
14343;BME280;7255;53.596;9.960;2024-01-30T11:53:06;102236.63;;;10.92;nan
14343;BME280;7255;53.596;9.960;2024-01-30T11:55:33;102237.19;;;10.87;nan
14343;BME280;7255;53.596;9.960;2024-01-30T11:58:01;102222.91;;;10.87;nan
14343;BME280;7255;53.596;9.960;2024-01-30T12:00:29;102240.25;;;10.84;nan
14343;BME280;7255;53.596;9.960;2024-01-30T12:02:59;102233.31;;;10.90;nan
14343;BME280;7255;53.596;9.960;2024-01-30T12:05:27;102227.16;;;10.96;nan
14343;BME280;7255;53.596;9.960;2024-01-30T12:07:54;102230.47;;;10.98;nan
14343;BME280;7255;53.596;9.960;2024-01-30T12:10:24;102230.03;;;10.94;nan
14343;BME280;7255;53.596;9.960;2024-01-30T12:12:50;102229.66;;;10.97;nan
14343;BME280;7255;53.596;9.960;2024-01-30T12:15:18;102225.88;;;10.92;nan
14343;BME280;7255;53.596;9.960;2024-01-30T12:17:46;102234.63;;;11.01;nan
14343;BME280;7255;53.596;9.960;2024-01-30T12:20:15;102221.41;;;10.99;nan
14343;BME280;7255;53.596;9.960;2024-01-30T12:22:44;102234.72;;;11.07;nan
14343;BME280;7255;53.596;9.960;2024-01-30T12:25:11;102219.34;;;11.01;nan
14343;BME280;7255;53.596;9.960;2024-01-30T12:27:39;102213.19;;;11.07;nan
14343;BME280;7255;53.596;9.960;2024-01-30T12:30:06;102216.53;;;11.09;nan
14343;BME280;7255;53.596;9.960;2024-01-30T12:32:34;102214.91;;;11.15;nan
14343;BME280;7255;53.596;9.960;2024-01-30T12:35:01;102216.03;;;10.99;nan
14343;BME280;7255;53.596;9.960;2024-01-30T12:37:29;102217.69;;;11.00;nan
14343;BME280;7255;53.596;9.960;2024-01-30T12:39:56;102201.16;;;11.03;nan
14343;BME280;7255;53.596;9.960;2024-01-30T12:42:22;102224.41;;;11.11;nan
14343;BME280;7255;53.596;9.960;2024-01-30T12:44:49;102218.22;;;11.10;nan
14343;BME280;7255;53.596;9.960;2024-01-30T12:47:17;102210.44;;;11.22;nan
14343;BME280;7255;53.596;9.960;2024-01-30T12:49:44;102225.84;;;11.28;nan
14343;BME280;7255;53.596;9.960;2024-01-30T12:52:10;102234.00;;;11.20;nan
14343;BME280;7255;53.596;9.960;2024-01-30T12:54:38;102222.81;;;11.16;nan
14343;BME280;7255;53.596;9.960;2024-01-30T12:57:05;102227.28;;;11.09;nan
14343;BME280;7255;53.596;9.960;2024-01-30T12:59:32;102217.34;;;11.10;nan
14343;BME280;7255;53.596;9.960;2024-01-30T13:02:00;102216.53;;;11.09;nan
14343;BME280;7255;53.596;9.960;2024-01-30T13:04:27;102208.72;;;11.14;nan
14343;BME280;7255;53.596;9.960;2024-01-30T13:06:53;102216.97;;;11.13;nan
14343;BME280;7255;53.596;9.960;2024-01-30T13:09:20;102211.94;;;11.03;nan
14343;BME280;7255;53.596;9.960;2024-01-30T13:11:49;102212.28;;;11.00;nan
14343;BME280;7255;53.596;9.960;2024-01-30T13:14:15;102217.69;;;11.00;nan
14343;BME280;7255;53.596;9.960;2024-01-30T13:16:41;102218.12;;;11.04;nan
14343;BME280;7255;53.596;9.960;2024-01-30T13:19:07;102217.69;;;11.00;nan
14343;BME280;7255;53.596;9.960;2024-01-30T13:21:34;102211.38;;;10.93;nan
14343;BME280;7255;53.596;9.960;2024-01-30T13:24:00;102208.53;;;10.94;nan
14343;BME280;7255;53.596;9.960;2024-01-30T13:26:27;102212.91;;;10.81;nan
14343;BME280;7255;53.596;9.960;2024-01-30T13:28:54;102212.09;;;10.80;nan
14343;BME280;7255;53.596;9.960;2024-01-30T13:31:21;102212.91;;;10.81;nan